Time;durP1;ratioP1;P1;durP2;ratioP2;P2;SDS_P1;SDS_P2;PMS_P1;PMS_P2;Temp;Humidity;BMP_temperature;BMP_pressure;BME280_temperature;BME280_humidity;BME280_pressure;Samples;Min_cycle;Max_cycle;Signal;HPM_P1;HPM_P2
2021/06/05 00:02:29;;;;;;;11.48;7.03;;;20.10;98.80;;;;;;6161871;23;20159;-94
2021/06/05 00:04:59;;;;;;;8.02;7.22;;;20.10;99.10;;;;;;6162532;23;20158;-94
2021/06/05 00:07:26;;;;;;;10.73;7.75;;;20.10;99.00;;;;;;6162167;23;20161;-94
2021/06/05 00:09:52;;;;;;;10.90;7.63;;;20.10;99.10;;;;;;6162216;23;20243;-95
2021/06/05 00:12:21;;;;;;;10.48;7.35;;;20.10;99.00;;;;;;6162180;23;20236;-93
2021/06/05 00:14:48;;;;;;;8.73;7.85;;;20.10;99.10;;;;;;6162165;23;20154;-95
2021/06/05 00:17:17;;;;;;;8.85;7.82;;;20.00;98.80;;;;;;6168125;23;20558;-96
2021/06/05 00:19:43;;;;;;;9.88;7.45;;;19.90;99.00;;;;;;6163930;23;20155;-95
2021/06/05 00:22:09;;;;;;;10.05;8.15;;;19.80;99.20;;;;;;6162068;23;20162;-94
2021/06/05 00:24:36;;;;;;;10.55;8.27;;;19.80;99.10;;;;;;6162346;23;20174;-95
2021/06/05 00:27:02;;;;;;;7.60;6.90;;;19.80;99.30;;;;;;6162284;23;20249;-93
2021/06/05 00:29:28;;;;;;;8.60;7.80;;;19.80;99.40;;;;;;6161867;23;20154;-94
2021/06/05 00:31:54;;;;;;;9.82;7.35;;;19.80;99.40;;;;;;6161952;23;20187;-94
2021/06/05 00:34:20;;;;;;;12.73;7.53;;;19.80;99.30;;;;;;6162093;23;20165;-94
2021/06/05 00:36:46;;;;;;;9.30;7.75;;;19.80;99.40;;;;;;6162541;23;20200;-93
2021/06/05 00:39:12;;;;;;;10.48;8.35;;;19.70;99.50;;;;;;6162555;23;20159;-94
2021/06/05 00:41:38;;;;;;;8.48;7.55;;;19.70;99.60;;;;;;6162206;23;20166;-94
2021/06/05 00:44:08;;;;;;;9.20;8.30;;;19.80;99.70;;;;;;6161743;23;20154;-94
2021/06/05 00:46:34;;;;;;;11.15;8.13;;;19.70;99.60;;;;;;6160966;23;20162;-95
2021/06/05 00:49:03;;;;;;;9.00;7.95;;;19.70;99.80;;;;;;6162238;23;20375;-94
2021/06/05 00:51:36;;;;;;;9.07;8.15;;;19.60;99.90;;;;;;6161846;23;20179;-94
2021/06/05 00:54:06;;;;;;;8.57;7.65;;;19.50;99.90;;;;;;6161178;23;20242;-94
2021/06/05 00:56:31;;;;;;;10.32;7.82;;;19.50;99.90;;;;;;6161681;23;20171;-94
2021/06/05 00:58:57;;;;;;;9.77;8.35;;;19.60;99.90;;;;;;6162081;23;20162;-93
2021/06/05 01:01:27;;;;;;;9.10;8.20;;;19.50;99.90;;;;;;6161453;23;20166;-95
2021/06/05 01:03:53;;;;;;;10.13;7.85;;;19.50;99.90;;;;;;6161987;23;20163;-94
2021/06/05 01:06:24;;;;;;;9.18;8.18;;;19.50;99.90;;;;;;6161594;23;20218;-94
2021/06/05 01:09:20;;;;;;;10.13;8.32;;;19.50;99.90;;;;;;6161649;23;20151;-93
2021/06/05 01:11:51;;;;;;;9.20;8.20;;;19.50;99.90;;;;;;6161831;23;20293;-94
2021/06/05 01:14:28;;;;;;;8.82;7.85;;;19.40;99.90;;;;;;6161864;23;20230;-93
2021/06/05 01:17:00;;;;;;;10.65;8.07;;;19.40;99.90;;;;;;6161737;23;20158;-94
2021/06/05 01:19:39;;;;;;;9.05;8.00;;;19.40;99.90;;;;;;6161512;23;20162;-94
2021/06/05 01:22:39;;;;;;;9.88;8.73;;;19.30;99.90;;;;;;6161710;23;20162;-95
2021/06/05 01:25:42;;;;;;;11.23;8.10;;;19.20;99.90;;;;;;6160901;23;20190;-94
2021/06/05 01:28:14;;;;;;;10.25;7.57;;;19.20;99.90;;;;;;6132189;23;20270;-94
2021/06/05 01:30:45;;;;;;;9.07;8.13;;;19.20;99.90;;;;;;6132345;23;20159;-93
2021/06/05 01:33:14;;;;;;;9.43;8.07;;;19.10;99.90;;;;;;6132116;23;20206;-94
2021/06/05 01:35:45;;;;;;;16.73;7.97;;;19.00;99.90;;;;;;6131816;23;20182;-93
2021/06/05 01:38:13;;;;;;;12.68;8.25;;;19.00;99.90;;;;;;6132211;23;20597;-93
2021/06/05 01:40:41;;;;;;;10.10;8.27;;;19.00;99.90;;;;;;6131832;23;20155;-93
2021/06/05 01:43:10;;;;;;;15.48;8.38;;;19.00;99.90;;;;;;6131936;23;20179;-93
2021/06/05 01:45:39;;;;;;;10.50;8.02;;;18.90;99.90;;;;;;6131863;23;20166;-94
2021/06/05 01:48:07;;;;;;;9.70;8.48;;;18.90;99.90;;;;;;6131073;23;20155;-93
2021/06/05 01:50:37;;;;;;;9.88;8.70;;;18.70;99.90;;;;;;6132156;23;20170;-94
2021/06/05 01:53:09;;;;;;;9.60;8.52;;;18.70;99.90;;;;;;6131860;23;20191;-94
2021/06/05 01:56:06;;;;;;;10.68;9.15;;;18.80;99.90;;;;;;6131999;23;20466;-94
2021/06/05 01:58:33;;;;;;;13.05;9.70;;;18.70;99.90;;;;;;6131876;23;20151;-94
2021/06/05 02:01:01;;;;;;;11.00;8.88;;;18.80;99.90;;;;;;6131604;23;20155;-93
2021/06/05 02:03:27;;;;;;;10.48;9.38;;;18.70;99.90;;;;;;6131963;23;20163;-94
2021/06/05 02:05:53;;;;;;;12.48;9.55;;;18.70;99.90;;;;;;6133341;23;20183;-94
2021/06/05 02:08:23;;;;;;;14.40;9.68;;;18.60;99.90;;;;;;6133994;23;20155;-94
2021/06/05 02:10:49;;;;;;;11.75;9.77;;;18.60;99.90;;;;;;6133808;23;20158;-94
2021/06/05 02:13:27;;;;;;;10.63;9.57;;;18.50;99.90;;;;;;6133585;23;20218;-94
2021/06/05 02:15:58;;;;;;;16.05;10.05;;;18.40;99.90;;;;;;6133672;23;20151;-93
2021/06/05 02:18:28;;;;;;;11.38;9.23;;;18.50;99.90;;;;;;6133747;23;20163;-94
2021/06/05 02:21:16;;;;;;;13.32;9.88;;;18.40;99.90;;;;;;6133428;23;20166;-93
2021/06/05 02:24:12;;;;;;;10.50;9.27;;;18.30;99.90;;;;;;6133517;23;20159;-94
2021/06/05 02:26:40;;;;;;;12.30;10.05;;;18.30;99.90;;;;;;6133318;23;20249;-94
2021/06/05 02:29:10;;;;;;;12.35;9.23;;;18.20;99.90;;;;;;6134017;23;20163;-94
2021/06/05 02:31:37;;;;;;;14.15;9.85;;;18.20;99.90;;;;;;6133631;23;20191;-94
2021/06/05 02:34:06;;;;;;;10.93;9.73;;;18.20;99.90;;;;;;6133598;23;20162;-95
2021/06/05 02:36:36;;;;;;;11.88;10.43;;;18.30;99.90;;;;;;6133188;23;20161;-94
2021/06/05 02:39:04;;;;;;;10.98;9.65;;;18.20;99.90;;;;;;6133695;23;20151;-94
2021/06/05 02:41:30;;;;;;;11.35;10.15;;;18.20;99.90;;;;;;6133495;23;20498;-94
2021/06/05 02:43:56;;;;;;;14.88;11.25;;;18.10;99.90;;;;;;6133442;23;20159;-96
2021/06/05 02:46:44;;;;;;;15.25;10.88;;;18.10;99.90;;;;;;6156826;23;20174;-95
2021/06/05 02:49:19;;;;;;;12.70;11.15;;;18.00;99.90;;;;;;6133526;23;20163;-94
2021/06/05 02:51:58;;;;;;;13.88;10.95;;;17.90;99.90;;;;;;6133290;23;20651;-94
2021/06/05 02:56:56;;;;;;;13.32;11.40;;;17.90;99.90;;;;;;6186751;23;20497;-95
2021/06/05 02:59:23;;;;;;;12.90;11.27;;;17.90;99.90;;;;;;6162051;23;20158;-94
2021/06/05 03:01:49;;;;;;;12.18;10.52;;;17.90;99.90;;;;;;6162953;23;20208;-94
2021/06/05 03:04:15;;;;;;;12.63;10.70;;;17.90;99.90;;;;;;6162898;23;20159;-95
2021/06/05 03:06:45;;;;;;;12.50;11.23;;;17.90;99.90;;;;;;6163119;23;20194;-95
2021/06/05 03:09:15;;;;;;;10.90;9.80;;;17.90;99.90;;;;;;6163318;23;20150;-95
2021/06/05 03:11:43;;;;;;;12.13;10.65;;;17.90;99.90;;;;;;6162802;23;20190;-94
2021/06/05 03:14:09;;;;;;;12.40;11.25;;;17.90;99.90;;;;;;6162841;23;20158;-96
2021/06/05 03:16:46;;;;;;;12.73;11.43;;;17.90;99.90;;;;;;6162335;23;20155;-95
2021/06/05 03:19:11;;;;;;;13.43;11.73;;;17.90;99.90;;;;;;6162951;23;20153;-95
2021/06/05 03:21:37;;;;;;;12.07;10.30;;;17.90;99.90;;;;;;6162943;23;20186;-95
2021/06/05 03:24:03;;;;;;;15.80;10.88;;;17.90;99.90;;;;;;6162651;23;20589;-95
2021/06/05 03:26:33;;;;;;;12.85;11.07;;;17.90;99.90;;;;;;6162333;23;20155;-95
2021/06/05 03:28:59;;;;;;;11.98;10.77;;;17.90;99.90;;;;;;6162736;23;20155;-95
2021/06/05 03:31:25;;;;;;;12.73;10.90;;;17.90;99.90;;;;;;6162605;23;20193;-95
2021/06/05 03:33:51;;;;;;;15.02;11.30;;;17.90;99.90;;;;;;6162444;23;20439;-94
2021/06/05 03:36:18;;;;;;;14.20;11.02;;;17.90;99.90;;;;;;6162471;23;20159;-94
2021/06/05 03:38:44;;;;;;;15.75;10.65;;;17.80;99.90;;;;;;6162863;23;20182;-95
2021/06/05 03:41:12;;;;;;;12.35;11.15;;;17.80;99.90;;;;;;6162667;23;20158;-95
2021/06/05 03:43:38;;;;;;;14.35;10.63;;;17.90;99.90;;;;;;6162350;23;20163;-93
2021/06/05 03:46:04;;;;;;;13.88;11.00;;;17.90;99.90;;;;;;6162568;23;20499;-94
2021/06/05 03:48:30;;;;;;;12.43;11.23;;;17.80;99.90;;;;;;6161745;23;20254;-95
2021/06/05 03:50:56;;;;;;;16.85;11.13;;;17.70;99.90;;;;;;6162819;23;20213;-96
2021/06/05 03:53:24;;;;;;;12.88;10.23;;;17.70;99.90;;;;;;6162255;23;20605;-95
2021/06/05 03:55:50;;;;;;;12.43;10.20;;;17.70;99.90;;;;;;6188164;23;20676;-94
2021/06/05 03:58:30;;;;;;;15.10;11.43;;;17.80;99.90;;;;;;6162684;23;20166;-96
2021/06/05 04:00:56;;;;;;;14.90;11.63;;;17.80;99.90;;;;;;6163531;23;20151;-96
2021/06/05 04:03:22;;;;;;;12.50;11.20;;;17.90;99.90;;;;;;6188769;23;20155;-96
2021/06/05 04:05:48;;;;;;;12.55;10.95;;;17.80;99.90;;;;;;6162437;23;20561;-95
2021/06/05 04:08:28;;;;;;;11.40;10.25;;;17.80;99.90;;;;;;6162476;23;20162;-94
2021/06/05 04:10:55;;;;;;;18.55;12.10;;;17.80;99.90;;;;;;6163764;23;20151;-95
2021/06/05 04:13:20;;;;;;;12.98;11.00;;;17.80;99.90;;;;;;6163048;23;20193;-95
2021/06/05 04:15:46;;;;;;;15.68;11.10;;;17.80;99.90;;;;;;6162024;23;20162;-95
2021/06/05 04:18:30;;;;;;;13.90;11.60;;;17.90;99.90;;;;;;6162015;23;20574;-95
2021/06/05 04:20:56;;;;;;;13.30;11.27;;;17.90;99.90;;;;;;6162459;23;20147;-96
2021/06/05 04:23:23;;;;;;;13.80;12.18;;;17.90;99.90;;;;;;6188350;23;20158;-94
2021/06/05 04:25:49;;;;;;;17.40;11.48;;;18.00;99.90;;;;;;6161917;23;20158;-95
2021/06/05 04:28:20;;;;;;;12.35;11.10;;;18.00;99.90;;;;;;6162332;23;20159;-95
2021/06/05 04:30:47;;;;;;;11.80;10.40;;;18.00;99.90;;;;;;6162592;23;20159;-94
2021/06/05 04:33:19;;;;;;;12.57;11.35;;;18.00;99.90;;;;;;6162446;23;20490;-96
2021/06/05 04:35:45;;;;;;;16.35;10.93;;;18.00;99.90;;;;;;6162043;23;20151;-95
2021/06/05 04:38:16;;;;;;;12.27;11.07;;;18.00;99.90;;;;;;6162469;23;20205;-94
2021/06/05 04:40:42;;;;;;;14.20;11.75;;;18.00;99.90;;;;;;6163818;23;20147;-96
2021/06/05 04:43:08;;;;;;;14.32;11.60;;;18.10;99.90;;;;;;6161535;23;20159;-96
2021/06/05 04:45:35;;;;;;;12.52;10.68;;;18.10;99.90;;;;;;6162106;23;20170;-96
2021/06/05 04:48:01;;;;;;;14.15;12.25;;;18.20;99.90;;;;;;6162513;23;20159;-95
2021/06/05 04:50:30;;;;;;;12.50;11.27;;;18.20;99.90;;;;;;6163040;23;20238;-95
2021/06/05 04:52:56;;;;;;;20.90;12.05;;;18.30;99.90;;;;;;6187471;23;20178;-94
2021/06/05 04:55:22;;;;;;;13.30;12.00;;;18.30;99.90;;;;;;6162808;23;20206;-96
2021/06/05 04:57:48;;;;;;;13.77;11.90;;;18.40;99.90;;;;;;6164544;23;20209;-94
2021/06/05 05:00:17;;;;;;;16.27;11.48;;;18.40;99.90;;;;;;6162415;23;20166;-94
2021/06/05 05:02:43;;;;;;;13.32;11.93;;;18.50;99.90;;;;;;6161768;23;20169;-95
2021/06/05 05:05:09;;;;;;;14.68;11.20;;;18.50;99.90;;;;;;6163914;23;20197;-93
2021/06/05 05:07:37;;;;;;;13.50;11.63;;;18.60;99.90;;;;;;6161086;23;20284;-95
2021/06/05 05:10:05;;;;;;;14.18;11.55;;;18.60;99.90;;;;;;6162813;23;20464;-96
2021/06/05 05:12:30;;;;;;;12.00;10.65;;;18.80;99.90;;;;;;6162702;23;20200;-96
2021/06/05 05:14:56;;;;;;;12.60;11.13;;;18.80;99.90;;;;;;6164143;23;20249;-95
2021/06/05 05:17:33;;;;;;;13.35;11.43;;;19.00;99.90;;;;;;6162108;23;20159;-95
2021/06/05 05:19:58;;;;;;;14.70;11.60;;;19.10;99.90;;;;;;6163516;23;20204;-96
2021/06/05 05:22:24;;;;;;;12.90;11.43;;;19.20;99.90;;;;;;6161707;23;20162;-94
2021/06/05 05:24:50;;;;;;;12.02;10.70;;;19.30;99.90;;;;;;6161849;23;20212;-95
2021/06/05 05:27:17;;;;;;;13.48;12.10;;;19.40;99.90;;;;;;6164039;23;20163;-94
2021/06/05 05:29:42;;;;;;;13.27;11.95;;;19.40;99.90;;;;;;6163005;23;20230;-95
2021/06/05 05:32:08;;;;;;;13.75;10.63;;;19.50;99.90;;;;;;6161683;23;20221;-94
2021/06/05 05:34:34;;;;;;;13.70;11.07;;;19.60;99.90;;;;;;6161704;23;20213;-95
2021/06/05 05:37:00;;;;;;;14.90;11.68;;;19.70;99.90;;;;;;6161830;23;20212;-94
2021/06/05 05:39:25;;;;;;;12.13;10.75;;;19.70;99.90;;;;;;6162629;23;20465;-95
2021/06/05 05:41:53;;;;;;;16.45;11.50;;;19.50;99.90;;;;;;6161577;23;20625;-95
2021/06/05 05:44:20;;;;;;;12.52;11.25;;;19.60;99.90;;;;;;6189383;23;20150;-94
2021/06/05 05:46:46;;;;;;;11.77;10.63;;;19.50;99.90;;;;;;6161898;23;20165;-95
2021/06/05 05:49:13;;;;;;;13.10;11.80;;;19.50;99.90;;;;;;6161331;23;20612;-96
2021/06/05 05:51:39;;;;;;;14.73;11.30;;;19.60;99.90;;;;;;6162114;23;20178;-95
2021/06/05 05:54:04;;;;;;;14.32;12.30;;;19.60;99.90;;;;;;6161872;23;20159;-95
2021/06/05 05:56:33;;;;;;;13.93;11.50;;;19.70;99.90;;;;;;6161130;23;20198;-95
2021/06/05 05:59:00;;;;;;;17.65;11.10;;;19.70;99.90;;;;;;6162328;23;20173;-95
2021/06/05 06:01:26;;;;;;;14.07;11.60;;;19.80;99.90;;;;;;6190236;23;20139;-95
2021/06/05 06:03:55;;;;;;;15.10;11.57;;;19.80;99.90;;;;;;6162332;23;20216;-96
2021/06/05 06:06:21;;;;;;;14.38;11.02;;;19.70;99.90;;;;;;6188399;23;20155;-94
2021/06/05 06:08:48;;;;;;;12.95;11.73;;;19.80;99.90;;;;;;6162223;23;20297;-94
2021/06/05 06:11:15;;;;;;;12.32;10.95;;;19.70;99.90;;;;;;6162130;23;20233;-96
2021/06/05 06:13:41;;;;;;;13.95;10.77;;;19.90;99.90;;;;;;6163876;23;20192;-95
2021/06/05 06:16:08;;;;;;;16.20;11.30;;;20.00;99.90;;;;;;6162805;23;20159;-95
2021/06/05 06:18:40;;;;;;;12.77;11.43;;;20.10;99.90;;;;;;6163519;23;20170;-95
2021/06/05 06:21:08;;;;;;;13.45;11.65;;;20.20;99.90;;;;;;6165986;23;20198;-96
2021/06/05 06:23:36;;;;;;;13.48;11.35;;;20.20;99.90;;;;;;6167046;23;20197;-96
2021/06/05 06:26:08;;;;;;;10.70;9.68;;;20.20;99.90;;;;;;6164504;23;20183;-96
2021/06/05 06:28:37;;;;;;;13.52;11.15;;;20.20;99.90;;;;;;6165740;23;20225;-96
2021/06/05 06:31:04;;;;;;;12.98;11.68;;;20.20;99.90;;;;;;6163106;23;20162;-95
2021/06/05 06:33:31;;;;;;;14.70;12.00;;;20.20;99.90;;;;;;6162230;23;20218;-95
2021/06/05 06:35:57;;;;;;;12.20;10.90;;;20.30;99.90;;;;;;6162888;23;20169;-94
2021/06/05 06:38:40;;;;;;;13.05;11.73;;;20.30;99.90;;;;;;6162827;23;20166;-95
2021/06/05 06:41:12;;;;;;;16.63;12.27;;;20.40;99.90;;;;;;6163382;23;20150;-95
2021/06/05 06:43:38;;;;;;;12.73;11.48;;;20.30;99.90;;;;;;6161404;23;20562;-95
2021/06/05 06:46:11;;;;;;;15.00;10.63;;;20.60;99.90;;;;;;6161491;23;20194;-93
2021/06/05 06:48:39;;;;;;;16.13;11.75;;;20.80;99.90;;;;;;6163125;23;20214;-94
2021/06/05 06:51:05;;;;;;;12.07;10.82;;;21.00;99.90;;;;;;6163167;23;20206;-95
2021/06/05 06:53:32;;;;;;;13.55;11.15;;;21.20;99.90;;;;;;6163757;23;20320;-96
2021/06/05 06:55:58;;;;;;;14.70;11.43;;;21.40;99.90;;;;;;6164615;23;20202;-96
2021/06/05 06:58:29;;;;;;;15.75;11.60;;;21.50;99.90;;;;;;6163447;23;20190;-96
2021/06/05 07:00:55;;;;;;;13.85;11.45;;;21.80;99.90;;;;;;6165015;23;20139;-94
2021/06/05 07:03:21;;;;;;;13.93;11.73;;;22.00;99.90;;;;;;6167374;23;20158;-96
2021/06/05 07:05:49;;;;;;;11.57;10.32;;;22.10;99.90;;;;;;6167136;23;20192;-96
2021/06/05 07:08:26;;;;;;;11.63;10.43;;;22.30;99.90;;;;;;6167894;23;20241;-96
2021/06/05 07:10:55;;;;;;;10.88;9.82;;;22.50;99.90;;;;;;6165867;23;20148;-96
2021/06/05 07:13:21;;;;;;;13.25;11.10;;;22.60;99.90;;;;;;6165359;23;20190;-96
2021/06/05 07:15:47;;;;;;;13.73;12.18;;;22.60;99.90;;;;;;6166368;23;20158;-96
2021/06/05 07:18:16;;;;;;;12.10;10.82;;;22.80;99.90;;;;;;6165032;23;20166;-95
2021/06/05 07:20:49;;;;;;;12.70;10.35;;;23.10;99.90;;;;;;6165549;23;20563;-96
2021/06/05 07:23:21;;;;;;;16.10;11.55;;;23.20;99.70;;;;;;6164125;23;20154;-93
2021/06/05 07:25:48;;;;;;;15.00;11.52;;;23.20;99.00;;;;;;6163636;23;20566;-96
2021/06/05 07:28:33;;;;;;;11.35;10.32;;;23.20;99.00;;;;;;6163957;23;20163;-96
2021/06/05 07:31:02;;;;;;;14.93;11.52;;;23.30;99.80;;;;;;6163910;23;20162;-95
2021/06/05 07:33:28;;;;;;;15.10;11.30;;;23.20;99.00;;;;;;6188883;23;20202;-95
2021/06/05 07:35:55;;;;;;;15.57;10.73;;;23.10;99.50;;;;;;6163468;23;20163;-96
2021/06/05 07:38:25;;;;;;;11.60;10.50;;;23.20;99.20;;;;;;6164854;23;20154;-96
2021/06/05 07:40:53;;;;;;;12.27;10.52;;;22.90;99.30;;;;;;6162842;23;20237;-94
2021/06/05 07:43:21;;;;;;;14.88;10.25;;;23.10;99.40;;;;;;6162535;23;20159;-94
2021/06/05 07:45:47;;;;;;;11.38;10.27;;;23.00;99.90;;;;;;6162582;23;20193;-95
2021/06/05 07:48:13;;;;;;;13.88;10.68;;;22.80;99.90;;;;;;6162304;23;20162;-94
2021/06/05 07:50:40;;;;;;;12.18;10.80;;;22.90;99.90;;;;;;6164612;23;20532;-96
2021/06/05 07:53:05;;;;;;;10.90;9.55;;;22.90;99.90;;;;;;6164455;23;20258;-94
2021/06/05 07:55:31;;;;;;;10.70;9.48;;;23.20;99.80;;;;;;6164784;23;20221;-95
2021/06/05 07:57:57;;;;;;;12.27;9.75;;;23.40;99.80;;;;;;6165347;23;20209;-96
2021/06/05 08:00:27;;;;;;;12.30;11.00;;;23.70;99.30;;;;;;6193183;23;20163;-96
2021/06/05 08:02:54;;;;;;;12.15;10.02;;;23.80;98.20;;;;;;6165718;23;20443;-95
2021/06/05 08:05:20;;;;;;;17.60;11.77;;;23.90;98.60;;;;;;6166601;23;20162;-96
2021/06/05 08:07:47;;;;;;;12.20;10.63;;;24.00;97.90;;;;;;6166529;23;20158;-96
2021/06/05 08:10:14;;;;;;;12.50;11.20;;;24.10;98.10;;;;;;6163275;23;20161;-95
2021/06/05 08:12:40;;;;;;;12.93;11.30;;;24.10;97.80;;;;;;6166227;23;20234;-96
2021/06/05 08:15:10;;;;;;;16.25;11.68;;;24.20;98.60;;;;;;6163848;23;20562;-95
2021/06/05 08:17:36;;;;;;;15.85;10.85;;;24.40;98.70;;;;;;6163366;23;20235;-95
2021/06/05 08:20:05;;;;;;;13.35;12.00;;;24.60;98.50;;;;;;6165326;23;20229;-96
2021/06/05 08:22:30;;;;;;;13.68;11.07;;;24.60;97.80;;;;;;6163932;23;20154;-95
2021/06/05 08:24:56;;;;;;;11.50;10.38;;;24.50;98.80;;;;;;6169347;23;20198;-96
2021/06/05 08:27:26;;;;;;;13.48;11.88;;;24.60;98.80;;;;;;6163854;23;20158;-94
2021/06/05 08:29:54;;;;;;;12.38;11.15;;;24.50;97.90;;;;;;6163893;23;20246;-96
2021/06/05 08:32:24;;;;;;;11.73;10.48;;;24.70;98.60;;;;;;6166963;23;20191;-96
2021/06/05 08:34:50;;;;;;;11.20;10.10;;;24.70;97.90;;;;;;6166359;23;20154;-96
2021/06/05 08:37:17;;;;;;;12.32;10.23;;;24.90;99.00;;;;;;6140793;23;20167;-96
2021/06/05 08:39:44;;;;;;;10.80;9.80;;;24.90;98.20;;;;;;6139971;23;20155;-95
2021/06/05 08:42:18;;;;;;;11.00;10.00;;;25.00;98.30;;;;;;6162803;23;20454;-96
2021/06/05 08:44:46;;;;;;;13.32;11.25;;;25.00;98.30;;;;;;6165888;23;20177;-96
2021/06/05 08:47:32;;;;;;;12.25;10.43;;;24.80;98.40;;;;;;6164751;23;20158;-95
2021/06/05 08:50:12;;;;;;;14.20;10.18;;;24.70;97.80;;;;;;6165057;23;20237;-95
2021/06/05 08:52:49;;;;;;;12.02;10.07;;;24.70;98.00;;;;;;6161423;23;20194;-94
2021/06/05 08:55:40;;;;;;;12.88;9.93;;;24.70;98.30;;;;;;6162123;23;20216;-94
2021/06/05 08:58:12;;;;;;;13.52;10.73;;;24.50;98.50;;;;;;6164630;23;20189;-96
2021/06/05 09:01:18;;;;;;;11.70;10.07;;;24.40;98.10;;;;;;6164732;23;20150;-96
2021/06/05 09:03:50;;;;;;;11.43;9.90;;;24.40;98.50;;;;;;6166224;23;20206;-96
2021/06/05 09:06:34;;;;;;;12.20;9.98;;;24.40;98.60;;;;;;6163067;23;20155;-95
2021/06/05 09:09:05;;;;;;;12.23;10.85;;;24.30;98.60;;;;;;6167290;23;20158;-95
2021/06/05 09:11:33;;;;;;;10.30;8.93;;;24.20;98.20;;;;;;6163696;23;20186;-96
2021/06/05 09:14:00;;;;;;;17.10;10.18;;;24.10;99.20;;;;;;6192557;23;20162;-95
2021/06/05 09:16:32;;;;;;;10.55;9.18;;;24.00;98.70;;;;;;6164532;23;20154;-95
2021/06/05 09:19:08;;;;;;;9.57;8.57;;;24.00;98.80;;;;;;6188100;23;20585;-94
2021/06/05 09:21:47;;;;;;;9.95;8.98;;;24.10;99.60;;;;;;6161496;23;20161;-95
2021/06/05 09:24:35;;;;;;;10.70;9.60;;;24.10;99.70;;;;;;6162075;23;20488;-94
2021/06/05 09:27:10;;;;;;;12.13;9.52;;;24.10;99.40;;;;;;6161924;23;20167;-96
2021/06/05 09:30:08;;;;;;;10.95;9.85;;;24.10;99.90;;;;;;6162912;23;20180;-95
2021/06/05 09:32:53;;;;;;;12.52;9.48;;;24.10;99.60;;;;;;6161882;23;20221;-96
2021/06/05 09:35:25;;;;;;;10.57;9.48;;;24.10;99.90;;;;;;6161791;23;20157;-95
2021/06/05 09:37:53;;;;;;;12.93;10.15;;;24.10;99.90;;;;;;6162022;23;20245;-95
2021/06/05 09:40:35;;;;;;;11.30;10.20;;;24.10;99.90;;;;;;6161590;23;20158;-95
2021/06/05 09:43:10;;;;;;;11.43;10.32;;;24.10;99.90;;;;;;6162234;23;20217;-96
2021/06/05 09:45:45;;;;;;;11.05;10.02;;;24.10;99.90;;;;;;6161727;23;20577;-95
2021/06/05 09:48:27;;;;;;;10.70;9.70;;;24.10;99.90;;;;;;6161000;23;20158;-96
2021/06/05 09:51:01;;;;;;;13.75;10.07;;;24.20;99.90;;;;;;6161880;23;20150;-95
2021/06/05 09:53:35;;;;;;;11.63;9.93;;;24.20;99.90;;;;;;6161343;23;20218;-95
2021/06/05 09:56:03;;;;;;;13.57;10.38;;;24.20;99.90;;;;;;6161932;23;20300;-96
2021/06/05 09:58:32;;;;;;;12.30;9.80;;;24.30;99.80;;;;;;6161964;23;20162;-94
2021/06/05 10:01:27;;;;;;;12.40;10.40;;;24.40;99.90;;;;;;6161608;23;20159;-95
2021/06/05 10:04:18;;;;;;;12.07;9.85;;;24.30;99.90;;;;;;6161414;23;20154;-95
2021/06/05 10:06:48;;;;;;;11.77;9.52;;;24.40;98.90;;;;;;6161568;23;20162;-96
2021/06/05 10:09:26;;;;;;;13.50;8.63;;;24.40;99.90;;;;;;6162408;23;20171;-96
2021/06/05 10:11:56;;;;;;;10.00;9.07;;;24.40;99.50;;;;;;6161594;23;20269;-96
2021/06/05 10:14:38;;;;;;;11.32;8.60;;;24.40;99.20;;;;;;6161881;23;20155;-94
2021/06/05 10:17:22;;;;;;;10.05;8.30;;;24.50;98.40;;;;;;6161627;23;20165;-96
2021/06/05 10:19:58;;;;;;;9.57;8.73;;;24.50;99.00;;;;;;6161348;23;20539;-95
2021/06/05 10:22:25;;;;;;;10.15;9.15;;;24.50;99.00;;;;;;6187658;23;20143;-95
2021/06/05 10:25:31;;;;;;;9.45;8.55;;;24.60;99.60;;;;;;6161956;23;20212;-95
2021/06/05 10:28:03;;;;;;;12.80;9.93;;;24.60;99.60;;;;;;6163671;23;20162;-96
2021/06/05 10:30:50;;;;;;;10.27;8.93;;;24.60;98.90;;;;;;6163773;23;20150;-96
2021/06/05 10:33:38;;;;;;;9.68;8.68;;;24.60;99.00;;;;;;6138262;23;20202;-95
2021/06/05 10:36:11;;;;;;;8.80;7.90;;;24.80;99.10;;;;;;6163616;23;20159;-95
2021/06/05 10:39:03;;;;;;;10.25;8.30;;;24.80;98.10;;;;;;6163509;23;20159;-96
2021/06/05 10:41:33;;;;;;;9.15;8.23;;;24.90;98.70;;;;;;6157408;23;20555;-95
2021/06/05 10:43:59;;;;;;;9.35;8.43;;;25.00;98.00;;;;;;6163206;23;20162;-95
2021/06/05 10:46:40;;;;;;;9.93;8.93;;;25.10;99.60;;;;;;6163901;23;20186;-95
2021/06/05 10:49:40;;;;;;;9.88;8.88;;;25.20;99.20;;;;;;6166667;23;20194;-96
2021/06/05 10:52:26;;;;;;;9.15;8.02;;;25.30;98.60;;;;;;6162545;23;20202;-96
2021/06/05 10:55:18;;;;;;;8.98;8.07;;;25.40;98.30;;;;;;6142647;23;20154;-96
2021/06/05 10:57:49;;;;;;;9.73;8.73;;;25.50;98.40;;;;;;6150412;23;20174;-95
2021/06/05 11:03:22;;;;;;;11.55;8.65;;;25.70;99.60;;;;;;6191945;23;20151;-96
2021/06/05 11:05:57;;;;;;;10.13;9.13;;;25.70;98.60;;;;;;6163896;23;20162;-95
2021/06/05 11:08:23;;;;;;;9.57;8.60;;;25.80;97.40;;;;;;6163147;23;20549;-96
2021/06/05 11:10:53;;;;;;;10.10;8.82;;;25.80;97.40;;;;;;6163193;23;20165;-96
2021/06/05 11:13:35;;;;;;;8.73;7.80;;;25.80;97.70;;;;;;6162566;23;20182;-96
2021/06/05 11:16:17;;;;;;;9.23;8.20;;;25.90;98.60;;;;;;6165025;23;20241;-96
2021/06/05 11:18:53;;;;;;;11.70;7.90;;;26.00;98.90;;;;;;6163189;23;20170;-96
2021/06/05 11:21:26;;;;;;;11.77;8.27;;;26.10;98.30;;;;;;6177570;23;20335;-94
2021/06/05 11:23:58;;;;;;;13.02;8.65;;;26.10;96.60;;;;;;6193380;23;20237;-96
2021/06/05 11:26:36;;;;;;;9.07;8.15;;;26.00;97.10;;;;;;6197778;23;20214;-96
2021/06/05 11:29:23;;;;;;;8.40;7.35;;;26.30;97.00;;;;;;6200723;23;20162;-96
2021/06/05 11:31:56;;;;;;;8.80;7.78;;;26.40;96.40;;;;;;6222749;23;20184;-96
2021/06/05 11:34:37;;;;;;;10.57;7.60;;;26.70;96.30;;;;;;6206435;23;20142;-95
2021/06/05 11:37:13;;;;;;;9.45;8.45;;;27.00;96.10;;;;;;6205122;23;20172;-96
2021/06/05 11:39:46;;;;;;;9.30;8.40;;;27.10;96.50;;;;;;6196981;23;20146;-96
2021/06/05 11:42:37;;;;;;;10.35;7.78;;;27.40;96.00;;;;;;6194653;23;20493;-95
2021/06/05 11:45:26;;;;;;;8.50;7.65;;;27.70;95.90;;;;;;6193876;23;20165;-96
2021/06/05 11:47:52;;;;;;;8.35;7.53;;;27.90;96.30;;;;;;6223566;23;20630;-96
2021/06/05 11:50:22;;;;;;;7.50;6.72;;;27.80;96.10;;;;;;6195388;23;20162;-95
2021/06/05 11:53:17;;;;;;;11.23;7.25;;;28.00;96.00;;;;;;6194642;23;20193;-96
2021/06/05 11:56:04;;;;;;;7.03;6.43;;;28.20;95.50;;;;;;6196520;23;20158;-96
2021/06/05 11:58:33;;;;;;;11.35;6.60;;;28.20;93.10;;;;;;6192270;23;20161;-95
2021/06/05 12:01:29;;;;;;;9.32;7.00;;;28.00;95.10;;;;;;6196695;23;20162;-96
2021/06/05 12:04:01;;;;;;;10.73;7.10;;;27.90;95.00;;;;;;6193273;23;20161;-96
2021/06/05 12:06:26;;;;;;;7.63;6.80;;;27.90;95.40;;;;;;6196283;23;20154;-95
2021/06/05 12:09:25;;;;;;;8.20;6.80;;;27.80;95.40;;;;;;6195683;23;20240;-96
2021/06/05 12:12:09;;;;;;;5.55;4.93;;;27.40;94.90;;;;;;6197703;23;20166;-96
2021/06/05 12:17:32;;;;;;;4.10;3.70;;;26.70;92.70;;;;;;6221425;22;20205;-96
2021/06/05 12:20:45;;;;;;;11.10;5.32;;;26.30;93.80;;;;;;6197056;23;20179;-95
2021/06/05 12:23:29;;;;;;;6.38;3.00;;;25.90;95.30;;;;;;6079107;23;20160;-93
2021/06/05 12:29:26;;;;;;;16.42;4.60;;;24.60;98.60;;;;;;6097309;23;20643;-96
2021/06/05 12:31:54;;;;;;;16.83;5.35;;;24.00;99.90;;;;;;6074860;23;20192;-95
2021/06/05 12:34:30;;;;;;;16.27;4.05;;;23.40;99.90;;;;;;6130276;23;20215;-96
2021/06/05 12:37:00;;;;;;;19.38;5.10;;;22.90;99.90;;;;;;6193826;23;20153;-94
2021/06/05 12:39:31;;;;;;;9.50;4.47;;;22.50;99.90;;;;;;6195125;23;20228;-96
2021/06/05 12:42:03;;;;;;;8.85;4.20;;;22.30;99.90;;;;;;6191482;23;20154;-94
2021/06/05 12:44:34;;;;;;;10.60;4.78;;;22.20;99.90;;;;;;6191419;23;20158;-94
2021/06/05 12:47:05;;;;;;;10.68;4.20;;;22.00;99.90;;;;;;6191691;23;20158;-96
2021/06/05 12:49:31;;;;;;;5.88;3.00;;;22.00;99.90;;;;;;6192203;23;20161;-94
2021/06/05 12:52:04;;;;;;;5.90;2.85;;;21.90;99.90;;;;;;6191915;23;20672;-95
2021/06/05 12:54:43;;;;;;;5.78;2.72;;;21.90;99.90;;;;;;6192133;23;20198;-95
2021/06/05 12:57:35;;;;;;;3.45;2.70;;;21.90;99.90;;;;;;6190982;23;20280;-93
2021/06/05 13:00:22;;;;;;;6.35;2.85;;;21.80;99.90;;;;;;6192034;23;20162;-93
2021/06/05 13:03:19;;;;;;;8.88;3.25;;;21.80;99.90;;;;;;6218100;23;20153;-92
2021/06/05 13:06:12;;;;;;;6.40;5.20;;;21.80;99.90;;;;;;6193858;23;20158;-94
2021/06/05 13:08:39;;;;;;;6.90;5.70;;;22.00;99.90;;;;;;6190835;23;20604;-96
2021/06/05 13:11:36;;;;;;;6.93;5.90;;;21.90;99.90;;;;;;6191886;23;20158;-93